Time;durP1;ratioP1;P1;durP2;ratioP2;P2;SDS_P1;SDS_P2;PMS_P1;PMS_P2;Temp;Humidity;BMP_temperature;BMP_pressure;BME280_temperature;BME280_humidity;BME280_pressure;Samples;Min_cycle;Max_cycle;Signal;HPM_P1;HPM_P2
2022/04/07 00:01:28;;;;;;;8.05;2.05;;;;;;;14.42;44.91;99137.47;5002470;28;97763;-69
2022/04/07 00:03:54;;;;;;;7.78;2.05;;;;;;;14.65;44.61;99129.41;5005256;28;101492;-68
2022/04/07 00:06:21;;;;;;;4.75;2.00;;;;;;;14.91;44.29;99129.16;5002316;28;99348;-69
2022/04/07 00:08:47;;;;;;;7.40;2.25;;;;;;;14.82;44.22;99127.25;4995362;28;96818;-70
2022/04/07 00:11:15;;;;;;;7.53;2.08;;;;;;;14.77;44.34;99128.44;5002406;28;97462;-68
2022/04/07 00:13:41;;;;;;;4.70;2.00;;;;;;;14.75;44.54;99117.09;5000673;28;99081;-67
2022/04/07 00:16:08;;;;;;;5.13;2.10;;;;;;;14.70;44.68;99108.59;5002695;28;98292;-70
2022/04/07 00:18:35;;;;;;;8.15;2.53;;;;;;;14.66;44.57;99103.66;4994837;28;96870;-68
2022/04/07 00:21:11;;;;;;;8.38;2.80;;;;;;;14.74;44.58;99103.91;5005853;28;96876;-69
2022/04/07 00:23:38;;;;;;;5.45;1.80;;;;;;;14.52;45.00;99094.09;4999689;28;99403;-69
2022/04/07 00:26:05;;;;;;;15.02;2.55;;;;;;;14.18;45.50;99087.00;5000964;28;97662;-69
2022/04/07 00:28:32;;;;;;;8.35;2.03;;;;;;;14.53;45.18;99086.97;5002422;28;96913;-68
2022/04/07 00:30:59;;;;;;;5.88;2.13;;;;;;;14.46;45.55;99086.59;5002436;28;96857;-68
2022/04/07 00:33:26;;;;;;;8.70;2.50;;;;;;;14.22;45.70;99086.66;5002239;28;98964;-67
2022/04/07 00:35:52;;;;;;;4.85;2.10;;;;;;;14.52;45.31;99077.31;4995396;28;98638;-68
2022/04/07 00:38:19;;;;;;;4.45;2.38;;;;;;;14.61;45.11;99072.13;4996181;28;97601;-69
2022/04/07 00:40:45;;;;;;;6.15;2.28;;;;;;;14.31;45.61;99063.81;5000380;28;96971;-67
2022/04/07 00:43:30;;;;;;;5.18;2.53;;;;;;;14.33;45.71;99064.56;5001213;28;99963;-68
2022/04/07 00:45:58;;;;;;;5.20;2.20;;;;;;;14.26;45.94;99060.69;4999183;28;98017;-70
2022/04/07 00:48:26;;;;;;;4.68;1.88;;;;;;;14.50;45.41;99064.16;4997879;28;98027;-69
2022/04/07 00:50:53;;;;;;;11.13;2.67;;;;;;;14.49;45.26;99059.81;5000638;28;96895;-68
2022/04/07 00:53:20;;;;;;;6.22;2.22;;;;;;;14.23;45.78;99055.63;5004794;28;99266;-68
2022/04/07 00:55:47;;;;;;;5.88;2.65;;;;;;;14.08;46.08;99051.47;5000600;28;99448;-68
2022/04/07 00:58:14;;;;;;;4.32;1.98;;;;;;;13.89;46.64;99047.59;5002972;28;96837;-69
2022/04/07 01:00:41;;;;;;;7.65;2.25;;;;;;;14.15;46.17;99042.94;5006264;28;96856;-68
2022/04/07 01:03:09;;;;;;;3.40;2.10;;;;;;;14.20;46.17;99034.59;5002947;28;99278;-69
2022/04/07 01:05:36;;;;;;;5.40;2.10;;;;;;;13.92;46.61;99033.22;5005192;28;98143;-68
2022/04/07 01:08:03;;;;;;;4.82;2.33;;;;;;;13.76;46.86;99030.88;5002979;28;97243;-68
2022/04/07 01:10:30;;;;;;;3.38;1.90;;;;;;;14.22;45.89;99027.38;5000741;28;97641;-68
2022/04/07 01:12:57;;;;;;;5.50;2.22;;;;;;;14.01;46.90;99029.84;4997920;28;99216;-70
2022/04/07 01:15:23;;;;;;;3.78;2.22;;;;;;;14.08;46.04;99023.13;4998219;28;97568;-70
2022/04/07 01:17:49;;;;;;;6.03;2.00;;;;;;;13.79;46.79;99024.47;4998295;28;99002;-70
2022/04/07 01:20:17;;;;;;;6.05;2.22;;;;;;;14.16;46.30;99022.53;4991013;28;98027;-69
2022/04/07 01:22:46;;;;;;;8.07;2.53;;;;;;;14.10;46.42;99021.19;5001591;28;102967;-69
2022/04/07 01:25:14;;;;;;;5.43;2.20;;;;;;;14.08;46.44;99019.63;5006311;28;100118;-70
2022/04/07 01:27:40;;;;;;;6.18;2.35;;;;;;;14.28;45.86;99019.78;4999226;28;97455;-71
2022/04/07 01:30:08;;;;;;;8.55;1.88;;;;;;;14.47;45.38;99010.38;5002362;28;96850;-69
2022/04/07 01:32:40;;;;;;;6.40;2.50;;;;;;;14.39;45.77;99008.31;4998512;28;98978;-70
2022/04/07 01:35:08;;;;;;;4.50;2.30;;;;;;;14.33;45.60;99008.78;5000529;28;99090;-69
2022/04/07 01:37:38;;;;;;;3.20;1.92;;;;;;;14.16;46.34;99003.94;4997375;28;96852;-71
2022/04/07 01:40:06;;;;;;;4.95;2.50;;;;;;;13.91;46.83;98995.19;5001049;28;96896;-69
2022/04/07 01:42:37;;;;;;;4.63;2.33;;;;;;;13.98;46.84;99001.72;5001966;28;97694;-70
2022/04/07 01:45:05;;;;;;;5.90;2.97;;;;;;;13.94;46.91;98992.31;5004523;28;98741;-70
2022/04/07 01:47:34;;;;;;;7.93;2.70;;;;;;;13.81;47.11;98980.94;4997479;28;96935;-71
2022/04/07 01:50:04;;;;;;;5.78;2.53;;;;;;;14.01;46.93;98989.19;5002373;28;96895;-70
2022/04/07 01:52:32;;;;;;;5.53;2.92;;;;;;;14.05;46.89;98987.97;4998708;28;100308;-69
2022/04/07 01:54:59;;;;;;;7.18;2.95;;;;;;;14.18;46.39;98986.91;4997364;28;98729;-69
2022/04/07 01:57:26;;;;;;;5.00;2.72;;;;;;;14.11;46.65;98992.84;4998460;28;96858;-70
2022/04/07 01:59:55;;;;;;;7.00;2.97;;;;;;;14.03;47.06;98985.44;4999189;28;97868;-70
2022/04/07 02:02:22;;;;;;;6.38;3.30;;;;;;;13.81;47.71;98980.09;5002228;28;98887;-70
2022/04/07 02:04:56;;;;;;;4.97;3.22;;;;;;;13.79;47.74;98982.84;4999475;28;98961;-69
2022/04/07 02:07:28;;;;;;;5.55;2.85;;;;;;;14.17;46.85;98982.56;5000726;28;96765;-69
2022/04/07 02:09:55;;;;;;;6.53;3.22;;;;;;;14.08;47.16;98977.97;5001567;28;98003;-70
2022/04/07 02:12:21;;;;;;;9.50;3.50;;;;;;;14.12;47.16;98981.22;5007080;28;97955;-69
2022/04/07 02:14:48;;;;;;;7.45;3.55;;;;;;;13.96;47.52;98970.94;4992607;28;99725;-71
2022/04/07 02:17:20;;;;;;;11.30;3.88;;;;;;;14.23;47.00;98967.97;5005146;28;97648;-68
2022/04/07 02:19:48;;;;;;;5.18;3.30;;;;;;;14.07;47.38;98970.09;4997407;28;97732;-69
2022/04/07 02:22:15;;;;;;;8.70;3.95;;;;;;;14.08;47.36;98961.19;5002693;28;100834;-68
2022/04/07 02:24:41;;;;;;;6.38;3.88;;;;;;;13.75;48.00;98969.94;4998874;28;99104;-69
2022/04/07 02:27:08;;;;;;;7.38;3.75;;;;;;;13.66;48.48;98960.88;5004489;28;97183;-69
2022/04/07 02:29:35;;;;;;;6.75;4.07;;;;;;;13.85;48.14;98958.50;4999876;28;97065;-69
2022/04/07 02:32:02;;;;;;;8.70;3.70;;;;;;;13.48;49.02;98963.13;5003118;28;99580;-69
2022/04/07 02:34:29;;;;;;;9.38;4.20;;;;;;;13.68;48.77;98950.97;4995822;28;99292;-71
2022/04/07 02:36:56;;;;;;;9.73;4.90;;;;;;;13.58;48.61;98947.34;5002031;28;96798;-69
2022/04/07 02:39:23;;;;;;;9.15;4.40;;;;;;;13.57;49.18;98946.50;5003958;28;97140;-68
2022/04/07 02:41:49;;;;;;;6.88;4.18;;;;;;;13.74;48.63;98947.84;5002316;28;99076;-69
2022/04/07 02:44:17;;;;;;;7.47;4.45;;;;;;;13.80;48.69;98943.88;4999477;28;98879;-70
2022/04/07 02:46:43;;;;;;;9.15;4.43;;;;;;;13.67;48.98;98938.66;5001513;28;96640;-70
2022/04/07 02:49:10;;;;;;;7.60;4.20;;;;;;;13.79;48.48;98934.22;5002201;28;97003;-70
2022/04/07 02:51:39;;;;;;;9.70;4.15;;;;;;;13.94;48.29;98939.19;4992752;28;99631;-71
2022/04/07 02:54:06;;;;;;;10.38;4.40;;;;;;;13.74;48.80;98937.25;5001268;28;99581;-71
2022/04/07 02:56:33;;;;;;;6.68;4.22;;;;;;;13.72;48.80;98933.03;4999799;28;96818;-71
2022/04/07 02:58:59;;;;;;;10.00;4.35;;;;;;;13.28;50.11;98923.97;4997422;28;97797;-68
2022/04/07 03:01:26;;;;;;;9.75;4.22;;;;;;;13.60;49.47;98928.63;4996943;28;97862;-69
2022/04/07 03:03:55;;;;;;;7.15;3.90;;;;;;;13.77;49.00;98930.84;4994815;28;98952;-70
2022/04/07 03:06:22;;;;;;;7.30;3.85;;;;;;;13.66;49.18;98929.00;4991544;28;96877;-70
2022/04/07 03:08:50;;;;;;;4.63;3.95;;;;;;;13.36;49.97;98926.91;5002253;28;96769;-69
2022/04/07 03:11:17;;;;;;;8.43;3.83;;;;;;;13.70;49.09;98917.22;4995494;28;98965;-70
2022/04/07 03:13:44;;;;;;;7.43;4.13;;;;;;;13.40;49.75;98914.22;5002120;28;99855;-70
2022/04/07 03:16:11;;;;;;;6.43;4.32;;;;;;;13.52;49.79;98908.84;5003012;28;96852;-69
2022/04/07 03:18:38;;;;;;;7.68;4.10;;;;;;;13.27;50.15;98900.19;5001826;28;97804;-71
2022/04/07 03:21:04;;;;;;;7.72;3.88;;;;;;;13.47;49.76;98900.38;5003471;28;100034;-69
2022/04/07 03:23:31;;;;;;;10.63;4.22;;;;;;;13.11;50.46;98892.53;4993146;28;98781;-69
2022/04/07 03:26:00;;;;;;;7.70;3.92;;;;;;;12.69;51.86;98885.97;4994156;28;97068;-70
2022/04/07 03:28:27;;;;;;;6.18;3.90;;;;;;;12.82;51.52;98878.78;4999694;28;96914;-70
2022/04/07 03:30:54;;;;;;;8.20;4.10;;;;;;;13.03;51.15;98879.84;4997884;28;99231;-69
2022/04/07 03:33:20;;;;;;;11.70;4.22;;;;;;;12.70;51.98;98874.41;5004013;28;99016;-69
2022/04/07 03:35:47;;;;;;;6.38;4.20;;;;;;;12.96;51.28;98875.97;5001658;28;96798;-69
2022/04/07 03:38:13;;;;;;;7.00;4.28;;;;;;;13.18;50.80;98875.25;5003786;28;97482;-70
2022/04/07 03:40:40;;;;;;;9.05;4.28;;;;;;;12.94;51.36;98861.97;4998307;28;97811;-69
2022/04/07 03:43:08;;;;;;;6.93;4.47;;;;;;;13.08;50.86;98864.44;5003623;28;98786;-70
2022/04/07 03:45:34;;;;;;;7.50;4.68;;;;;;;13.01;50.86;98870.31;5009514;28;96736;-68
2022/04/07 03:48:01;;;;;;;8.18;4.40;;;;;;;13.35;50.21;98877.44;5007313;28;96828;-69
2022/04/07 03:50:28;;;;;;;10.45;4.70;;;;;;;13.60;49.66;98862.28;5003422;28;99223;-68
2022/04/07 03:52:54;;;;;;;6.32;4.22;;;;;;;13.36;50.03;98863.22;5007294;28;99605;-69
2022/04/07 03:55:22;;;;;;;7.63;3.92;;;;;;;13.57;49.66;98868.69;5001662;28;97153;-69
2022/04/07 03:57:48;;;;;;;10.60;4.18;;;;;;;13.54;49.92;98858.31;5007409;28;96893;-70
2022/04/07 04:00:17;;;;;;;6.90;4.38;;;;;;;13.51;49.95;98856.75;5003196;28;98879;-69
2022/04/07 04:02:44;;;;;;;8.00;4.05;;;;;;;13.52;49.92;98860.25;5007541;28;101542;-68
2022/04/07 04:05:11;;;;;;;7.97;3.58;;;;;;;13.27;50.55;98865.72;5003867;28;97190;-69
2022/04/07 04:07:37;;;;;;;7.60;3.92;;;;;;;13.42;50.31;98859.25;5001590;28;96777;-69
2022/04/07 04:10:04;;;;;;;8.10;4.10;;;;;;;13.57;50.30;98847.47;4996941;28;99257;-70
2022/04/07 04:12:31;;;;;;;4.90;4.22;;;;;;;13.55;50.10;98841.44;5008333;28;97521;-69
2022/04/07 04:14:57;;;;;;;8.18;4.25;;;;;;;13.68;49.82;98842.16;5003636;28;98186;-69
2022/04/07 04:17:27;;;;;;;9.38;4.57;;;;;;;13.61;49.91;98829.50;5002322;28;98352;-69
2022/04/07 04:19:54;;;;;;;10.32;4.60;;;;;;;13.37;50.64;98827.78;5003017;28;98450;-70
2022/04/07 04:22:20;;;;;;;6.13;3.97;;;;;;;13.63;49.89;98833.72;5004507;28;98874;-68
2022/04/07 04:24:48;;;;;;;7.05;4.05;;;;;;;13.51;50.10;98834.69;5004958;28;96790;-69
2022/04/07 04:27:14;;;;;;;6.93;3.85;;;;;;;13.42;50.46;98824.78;5002556;28;96848;-70
2022/04/07 04:29:40;;;;;;;6.35;3.72;;;;;;;13.55;50.20;98820.19;4999713;28;101228;-72
2022/04/07 04:32:09;;;;;;;11.65;4.50;;;;;;;13.36;50.72;98807.53;5003830;28;99275;-68
2022/04/07 04:34:37;;;;;;;5.13;4.05;;;;;;;13.20;51.06;98800.84;5004542;28;97454;-69
2022/04/07 04:37:04;;;;;;;5.95;4.13;;;;;;;13.44;50.85;98806.94;4997733;28;98832;-69
2022/04/07 04:39:31;;;;;;;13.32;4.63;;;;;;;13.31;51.04;98798.22;4997816;28;99839;-69
2022/04/07 04:41:57;;;;;;;9.85;3.83;;;;;;;13.45;50.45;98796.22;5005907;28;99276;-69
2022/04/07 04:44:24;;;;;;;8.25;4.38;;;;;;;13.56;50.47;98795.34;5006332;28;98671;-68
2022/04/07 04:46:51;;;;;;;6.20;3.50;;;;;;;13.55;50.09;98794.50;5001270;28;97317;-70
2022/04/07 04:49:17;;;;;;;6.03;4.25;;;;;;;13.60;50.19;98796.78;4997288;28;97608;-69
2022/04/07 04:51:45;;;;;;;8.38;3.55;;;;;;;13.79;49.51;98781.09;5000006;28;96787;-69
2022/04/07 04:54:13;;;;;;;7.32;3.70;;;;;;;13.69;49.87;98785.47;5001708;28;96859;-70
2022/04/07 04:56:40;;;;;;;5.97;3.13;;;;;;;13.93;49.38;98780.84;5000145;28;98945;-73
2022/04/07 04:59:07;;;;;;;6.38;2.97;;;;;;;13.83;49.60;98776.41;4999409;28;99728;-67
2022/04/07 05:01:34;;;;;;;5.88;3.00;;;;;;;13.64;50.05;98774.38;5002318;28;101945;-70
2022/04/07 05:04:00;;;;;;;6.13;3.20;;;;;;;13.87;49.28;98767.22;5000105;28;97561;-70
2022/04/07 05:06:27;;;;;;;7.30;3.08;;;;;;;13.84;49.52;98765.69;4998005;28;98694;-69
2022/04/07 05:08:55;;;;;;;7.88;3.00;;;;;;;13.84;49.10;98752.41;5004215;28;100370;-68
2022/04/07 05:11:21;;;;;;;5.25;2.90;;;;;;;13.83;49.51;98760.47;5002616;28;98066;-69
2022/04/07 05:13:48;;;;;;;8.88;3.45;;;;;;;13.64;50.17;98752.31;5002055;28;96834;-70
2022/04/07 05:16:16;;;;;;;5.20;3.10;;;;;;;13.60;50.29;98754.34;5001078;28;96899;-68
2022/04/07 05:18:46;;;;;;;3.25;2.60;;;;;;;13.44;50.74;98744.09;5003391;28;97106;-69
2022/04/07 05:21:13;;;;;;;5.22;2.95;;;;;;;13.64;50.15;98755.81;5001580;28;99577;-68
2022/04/07 05:23:39;;;;;;;13.75;2.90;;;;;;;13.24;51.03;98743.97;5003416;28;97366;-68
2022/04/07 05:26:07;;;;;;;6.18;2.92;;;;;;;13.24;51.35;98747.47;4996259;28;97492;-68
2022/04/07 05:28:34;;;;;;;4.30;2.63;;;;;;;13.50;50.69;98737.47;5001373;28;99741;-68
2022/04/07 05:31:00;;;;;;;6.50;3.10;;;;;;;13.67;50.30;98742.28;4997025;28;99284;-68
2022/04/07 05:33:27;;;;;;;6.97;3.08;;;;;;;13.44;50.80;98730.00;5002880;28;97223;-69
2022/04/07 05:35:54;;;;;;;4.05;2.22;;;;;;;13.45;50.92;98731.69;4998353;28;96982;-69
2022/04/07 05:38:20;;;;;;;5.10;2.65;;;;;;;13.57;50.60;98733.38;5001602;28;98093;-67
2022/04/07 05:40:47;;;;;;;4.57;2.53;;;;;;;13.37;51.30;98720.81;4998454;28;98895;-69
2022/04/07 05:43:14;;;;;;;8.77;3.15;;;;;;;13.48;51.01;98724.31;5003062;28;96742;-67
2022/04/07 05:45:42;;;;;;;7.05;2.65;;;;;;;13.37;50.99;98712.88;4999081;28;96830;-67
2022/04/07 05:48:10;;;;;;;3.03;2.40;;;;;;;13.66;50.69;98719.34;4997308;28;100908;-67
2022/04/07 05:50:36;;;;;;;5.78;2.50;;;;;;;13.90;49.77;98714.75;4998597;28;99225;-68
2022/04/07 05:53:03;;;;;;;7.70;2.67;;;;;;;14.11;49.72;98721.94;5000116;28;96832;-68
2022/04/07 05:55:30;;;;;;;6.82;2.88;;;;;;;14.05;49.72;98704.66;5007373;28;96875;-69
2022/04/07 05:57:56;;;;;;;6.85;2.78;;;;;;;14.47;48.58;98710.94;4997867;28;98891;-68
2022/04/07 06:00:24;;;;;;;5.07;2.40;;;;;;;14.12;49.42;98700.53;5005300;28;101489;-69
2022/04/07 06:02:50;;;;;;;7.72;2.55;;;;;;;14.05;49.70;98701.16;4999186;28;97646;-70
2022/04/07 06:05:18;;;;;;;4.30;2.60;;;;;;;14.03;49.73;98703.13;4994964;28;97552;-68
2022/04/07 06:07:46;;;;;;;2.42;2.05;;;;;;;14.45;48.70;98704.91;5002063;28;100533;-68
2022/04/07 06:10:14;;;;;;;3.83;2.38;;;;;;;14.25;49.05;98705.69;5005102;28;97799;-68
2022/04/07 06:12:46;;;;;;;5.68;3.03;;;;;;;14.32;49.00;98704.19;5002449;28;97020;-68
2022/04/07 06:15:13;;;;;;;9.07;2.72;;;;;;;14.19;49.37;98707.03;4995404;28;96875;-70
2022/04/07 06:17:44;;;;;;;7.38;2.72;;;;;;;14.54;48.60;98704.16;4996662;28;98933;-68
2022/04/07 06:20:12;;;;;;;3.20;2.10;;;;;;;14.79;47.71;98697.59;4995726;28;99367;-69
2022/04/07 06:22:39;;;;;;;6.90;2.33;;;;;;;14.86;47.75;98696.09;4999253;28;97627;-68
2022/04/07 06:25:07;;;;;;;3.97;2.00;;;;;;;14.95;47.34;98686.50;4997987;28;97770;-69
2022/04/07 06:27:35;;;;;;;4.40;2.00;;;;;;;15.11;47.34;98681.53;4994322;28;98906;-69
2022/04/07 06:30:01;;;;;;;4.05;2.08;;;;;;;14.92;47.43;98674.31;4997835;28;98900;-69
2022/04/07 06:32:30;;;;;;;3.55;2.55;;;;;;;14.95;47.12;98686.50;4998908;28;96994;-69
2022/04/07 06:35:01;;;;;;;6.63;2.15;;;;;;;15.17;47.09;98683.66;5004504;28;97076;-69
2022/04/07 06:37:28;;;;;;;4.90;1.90;;;;;;;15.30;46.49;98681.63;4995851;28;98228;-71
2022/04/07 06:40:01;;;;;;;4.78;2.05;;;;;;;15.13;46.75;98664.47;5000158;28;98862;-70
2022/04/07 06:42:28;;;;;;;8.00;2.20;;;;;;;15.29;46.32;98664.00;4998561;28;97261;-71
2022/04/07 06:44:55;;;;;;;2.35;1.63;;;;;;;14.91;46.97;98669.94;5003969;28;96889;-70
2022/04/07 06:47:22;;;;;;;5.65;2.45;;;;;;;14.98;47.07;98663.13;4997898;28;101387;-71
2022/04/07 06:49:50;;;;;;;2.30;1.80;;;;;;;14.94;48.57;98652.91;5001923;28;99175;-70
2022/04/07 06:52:19;;;;;;;3.50;1.65;;;;;;;15.02;48.22;98648.63;4998807;28;96796;-71
2022/04/07 06:54:45;;;;;;;6.22;2.10;;;;;;;15.28;47.34;98645.50;4996092;28;98067;-70
2022/04/07 06:57:15;;;;;;;4.10;1.92;;;;;;;15.28;47.09;98649.00;4999544;28;98857;-70
2022/04/07 06:59:42;;;;;;;4.93;2.10;;;;;;;15.23;46.73;98632.56;4998851;28;99630;-70
2022/04/07 07:02:11;;;;;;;2.70;1.88;;;;;;;15.34;46.74;98635.16;5006437;28;96839;-71
2022/04/07 07:04:38;;;;;;;1.98;1.70;;;;;;;15.30;46.33;98631.06;4996848;28;97217;-71
2022/04/07 07:07:05;;;;;;;4.45;2.22;;;;;;;15.70;45.51;98627.56;4990726;28;99424;-71
2022/04/07 07:09:33;;;;;;;5.80;2.35;;;;;;;15.85;45.08;98627.03;4991822;28;99834;-68
2022/04/07 07:12:00;;;;;;;4.70;2.20;;;;;;;15.37;46.24;98629.53;4996495;28;96951;-70
2022/04/07 07:14:26;;;;;;;4.50;2.10;;;;;;;15.39;46.37;98624.94;5002904;28;96893;-69
2022/04/07 07:16:53;;;;;;;6.15;2.38;;;;;;;15.22;46.00;98628.25;4994517;28;99401;-70
2022/04/07 07:19:26;;;;;;;9.82;2.50;;;;;;;15.57;45.61;98611.00;4997990;28;99052;-70
2022/04/07 07:21:52;;;;;;;3.00;2.13;;;;;;;16.12;44.30;98602.34;4994258;28;98122;-71
2022/04/07 07:24:19;;;;;;;3.42;1.92;;;;;;;15.86;44.04;98588.75;4994611;28;98320;-71
2022/04/07 07:26:47;;;;;;;4.05;2.13;;;;;;;16.06;43.90;98602.06;4992803;28;100890;-70
2022/04/07 07:29:14;;;;;;;4.40;2.08;;;;;;;16.19;43.46;98594.63;4996543;28;97749;-72
2022/04/07 07:31:40;;;;;;;3.58;1.88;;;;;;;16.17;43.61;98597.44;5000783;28;98434;-69
2022/04/07 07:34:07;;;;;;;3.83;1.85;;;;;;;16.09;43.49;98575.97;4999272;28;98569;-69
2022/04/07 07:36:35;;;;;;;3.15;2.05;;;;;;;15.82;43.93;98570.53;5000912;28;98292;-69
2022/04/07 07:39:01;;;;;;;3.72;1.50;;;;;;;16.10;43.56;98571.50;4993705;28;99246;-69
2022/04/07 07:41:28;;;;;;;3.88;1.73;;;;;;;16.17;42.99;98562.81;5004054;28;96896;-70
2022/04/07 07:43:56;;;;;;;1.85;1.40;;;;;;;16.19;42.97;98568.84;4995566;28;97623;-70
2022/04/07 07:46:25;;;;;;;3.88;1.30;;;;;;;15.65;44.08;98560.56;4992984;28;98940;-69
2022/04/07 07:48:52;;;;;;;3.13;1.30;;;;;;;16.49;42.44;98553.63;4995924;28;98842;-70
2022/04/07 07:51:19;;;;;;;3.92;1.40;;;;;;;16.54;42.10;98551.38;5004792;28;97203;-70
2022/04/07 07:53:45;;;;;;;14.30;1.85;;;;;;;16.50;42.07;98553.47;5001092;28;98482;-70
2022/04/07 07:56:12;;;;;;;7.25;1.38;;;;;;;16.82;41.34;98533.59;4994925;28;99473;-70
2022/04/07 07:58:39;;;;;;;3.03;1.10;;;;;;;17.46;39.98;98552.19;5002439;28;98926;-70
2022/04/07 08:01:07;;;;;;;5.20;1.45;;;;;;;16.80;41.47;98524.94;4997822;28;96962;-70
2022/04/07 08:03:34;;;;;;;2.15;1.60;;;;;;;17.27;40.73;98526.47;4987338;28;97886;-70
2022/04/07 08:06:01;;;;;;;6.07;1.25;;;;;;;18.33;38.50;98522.94;4992330;28;99330;-69
2022/04/07 08:08:27;;;;;;;2.08;1.20;;;;;;;17.62;39.18;98506.19;4993857;28;98988;-69
2022/04/07 08:10:54;;;;;;;4.88;1.40;;;;;;;17.47;39.67;98519.19;4995703;28;99304;-70
2022/04/07 08:13:21;;;;;;;4.13;1.10;;;;;;;17.01;40.91;98502.34;4997120;28;97334;-70
2022/04/07 08:15:47;;;;;;;1.77;1.17;;;;;;;16.87;41.10;98500.16;4991858;28;97696;-70
2022/04/07 08:18:15;;;;;;;3.22;1.27;;;;;;;16.96;41.30;98504.63;4996337;28;99148;-70
2022/04/07 08:20:42;;;;;;;4.50;1.05;;;;;;;17.49;40.71;98502.03;4992291;28;98775;-70
2022/04/07 08:23:09;;;;;;;4.25;1.48;;;;;;;17.59;40.31;98501.13;4995627;28;97487;-70
2022/04/07 08:25:36;;;;;;;5.43;1.08;;;;;;;17.40;40.77;98483.41;4995624;28;99842;-69
2022/04/07 08:28:03;;;;;;;26.13;1.77;;;;;;;16.94;41.51;98487.91;4989706;28;97951;-69
2022/04/07 08:30:33;;;;;;;6.28;0.85;;;;;;;16.67;41.71;98482.59;4992544;28;97279;-68
2022/04/07 08:33:00;;;;;;;2.55;1.02;;;;;;;17.29;40.57;98483.63;4996837;28;98680;-70
2022/04/07 08:35:28;;;;;;;2.60;0.85;;;;;;;17.04;40.96;98474.53;4991799;28;99532;-68
2022/04/07 08:37:54;;;;;;;3.30;0.85;;;;;;;16.90;41.02;98467.88;4996416;28;97743;-69
2022/04/07 08:40:22;;;;;;;2.03;0.88;;;;;;;17.21;40.64;98480.88;4999360;28;99333;-68
2022/04/07 08:42:52;;;;;;;2.35;1.00;;;;;;;17.32;40.27;98465.50;5006676;28;97567;-71
2022/04/07 08:45:18;;;;;;;1.45;0.57;;;;;;;17.71;39.46;98460.72;4990602;28;100081;-68
2022/04/07 08:47:51;;;;;;;1.83;1.10;;;;;;;17.36;39.97;98450.00;4990125;28;99258;-68
2022/04/07 08:50:22;;;;;;;2.58;1.10;;;;;;;18.10;38.63;98442.47;4992973;28;97148;-69
2022/04/07 08:52:51;;;;;;;1.23;0.77;;;;;;;17.96;38.63;98458.22;4991690;28;98162;-69
2022/04/07 08:55:18;;;;;;;1.30;0.80;;;;;;;17.69;39.30;98460.00;4993749;28;102022;-69
2022/04/07 08:57:45;;;;;;;94.95;4.43;;;;;;;17.73;39.44;98456.03;4992149;28;99621;-68
2022/04/07 09:00:12;;;;;;;30.23;1.45;;;;;;;17.21;40.44;98460.38;4992648;28;99567;-69
2022/04/07 09:02:39;;;;;;;3.10;0.70;;;;;;;17.60;39.60;98446.69;4992439;28;97445;-70
2022/04/07 09:05:10;;;;;;;1.77;0.73;;;;;;;17.65;39.44;98450.66;4991005;28;98971;-71
2022/04/07 09:07:37;;;;;;;18.40;0.98;;;;;;;17.09;40.30;98445.56;4994904;28;99436;-72
2022/04/07 09:10:06;;;;;;;1.13;0.57;;;;;;;17.49;39.94;98424.59;4987443;28;99033;-70
2022/04/07 09:12:34;;;;;;;2.28;0.80;;;;;;;16.93;41.21;98430.25;4996112;28;97354;-72
2022/04/07 09:15:01;;;;;;;1.17;0.50;;;;;;;17.45;40.11;98414.41;4996354;28;98744;-70
2022/04/07 09:17:27;;;;;;;1.45;0.45;;;;;;;17.46;40.23;98414.22;4996731;28;98787;-71
2022/04/07 09:19:55;;;;;;;4.85;0.80;;;;;;;17.65;39.61;98402.56;4986145;28;97916;-69
2022/04/07 09:22:30;;;;;;;2.78;0.50;;;;;;;17.49;39.58;98389.91;4997369;28;97167;-72
2022/04/07 09:24:56;;;;;;;0.50;0.40;;;;;;;17.83;39.19;98387.34;5003419;28;99957;-70
2022/04/07 09:27:24;;;;;;;1.88;0.40;;;;;;;18.19;38.71;98392.53;4992377;28;100673;-73
2022/04/07 09:29:55;;;;;;;4.57;0.45;;;;;;;17.92;38.90;98367.69;4993051;28;97745;-71
2022/04/07 09:32:24;;;;;;;3.92;0.50;;;;;;;17.57;39.76;98369.59;4997109;28;97951;-71
2022/04/07 09:34:53;;;;;;;0.50;0.50;;;;;;;18.18;38.76;98366.84;4993892;28;101113;-71
2022/04/07 09:37:21;;;;;;;1.88;0.40;;;;;;;17.75;39.36;98362.41;4996003;28;97645;-70
2022/04/07 09:39:48;;;;;;;8.90;0.82;;;;;;;17.42;39.76;98355.97;4996806;28;97428;-70
2022/04/07 09:42:19;;;;;;;0.65;0.40;;;;;;;18.16;38.53;98344.78;4991735;28;97553;-69
2022/04/07 09:44:52;;;;;;;19.33;0.82;;;;;;;17.95;38.55;98341.66;4989476;28;97925;-70
2022/04/07 09:47:19;;;;;;;25.27;1.60;;;;;;;17.12;40.04;98325.19;4996185;28;102308;-70
2022/04/07 09:49:46;;;;;;;28.30;1.58;;;;;;;17.16;39.87;98326.56;4993619;28;97296;-69
2022/04/07 09:52:13;;;;;;;1.65;0.22;;;;;;;17.33;39.49;98328.34;4993481;28;97537;-70
2022/04/07 09:54:41;;;;;;;11.00;1.20;;;;;;;17.19;39.14;98334.28;4991261;28;100367;-68
2022/04/07 09:57:10;;;;;;;0.95;0.30;;;;;;;18.05;37.83;98323.69;4990780;28;99401;-69
2022/04/07 09:59:38;;;;;;;5.43;0.55;;;;;;;17.75;38.00;98307.16;4987708;28;99211;-70
2022/04/07 10:02:06;;;;;;;0.60;0.40;;;;;;;17.94;37.98;98300.72;4997361;28;97166;-71
2022/04/07 10:04:34;;;;;;;3.60;1.08;;;;;;;17.49;38.85;98298.28;4998622;28;99538;-70
2022/04/07 10:07:02;;;;;;;3.25;0.60;;;;;;;17.68;38.71;98298.09;4998982;28;98545;-69
2022/04/07 10:09:30;;;;;;;0.85;0.60;;;;;;;17.33;39.43;98282.13;4992614;28;97094;-70
2022/04/07 10:11:56;;;;;;;1.02;0.40;;;;;;;17.67;38.88;98275.06;4995014;28;97969;-69
2022/04/07 10:14:25;;;;;;;3.60;0.55;;;;;;;17.81;38.09;98265.59;4992889;28;99289;-70
2022/04/07 10:16:52;;;;;;;3.50;0.40;;;;;;;18.31;37.39;98268.31;4996683;28;98107;-69
2022/04/07 10:19:25;;;;;;;2.45;0.60;;;;;;;18.36;37.57;98266.00;4994512;28;97921;-70
2022/04/07 10:22:13;;;;;;;3.70;0.55;;;;;;;17.51;38.84;98249.09;4995279;28;98409;-69
2022/04/07 10:24:45;;;;;;;1.40;0.57;;;;;;;17.60;39.04;98236.59;4990390;28;98937;-70
2022/04/07 10:27:14;;;;;;;3.05;0.73;;;;;;;17.80;38.23;98224.69;4997736;28;101495;-70
2022/04/07 10:29:41;;;;;;;2.22;0.88;;;;;;;17.79;38.74;98220.34;4991678;28;97437;-70
2022/04/07 10:32:21;;;;;;;3.42;0.52;;;;;;;17.22;39.94;98215.69;4994245;28;97763;-69
2022/04/07 10:34:58;;;;;;;2.25;0.40;;;;;;;17.41;39.80;98210.13;4994411;28;97614;-70
2022/04/07 10:37:40;;;;;;;0.45;0.30;;;;;;;17.60;39.33;98211.72;4996407;28;99106;-69
2022/04/07 10:40:33;;;;;;;2.83;0.43;;;;;;;17.17;39.82;98193.97;4997827;28;97264;-68
2022/04/07 10:43:13;;;;;;;151.85;5.15;;;;;;;16.85;40.67;98187.44;4998663;28;98137;-69
2022/04/07 10:45:41;;;;;;;3.35;0.60;;;;;;;16.79;40.99;98177.41;4992021;28;99586;-70
2022/04/07 10:48:35;;;;;;;3.75;0.40;;;;;;;16.94;41.18;98164.31;4990886;28;99022;-69
2022/04/07 10:51:05;;;;;;;6.47;0.50;;;;;;;16.87;41.54;98158.75;4975951;28;97160;-68
2022/04/07 10:53:33;;;;;;;2.38;0.57;;;;;;;17.02;41.67;98149.19;4990347;28;97458;-70
2022/04/07 10:56:07;;;;;;;2.05;0.50;;;;;;;17.34;41.94;98155.69;4992146;28;99342;-69
2022/04/07 10:58:41;;;;;;;0.40;0.40;;;;;;;17.45;41.87;98136.75;4990229;28;99392;-69
2022/04/07 11:01:13;;;;;;;13.57;0.90;;;;;;;17.16;42.55;98150.44;4995233;28;98349;-70
2022/04/07 11:03:41;;;;;;;1.30;0.43;;;;;;;17.33;43.36;98125.50;4996960;28;97051;-68
2022/04/07 11:06:11;;;;;;;2.35;0.65;;;;;;;17.26;43.45;98112.97;4993535;28;99430;-70
2022/04/07 11:08:38;;;;;;;2.13;0.50;;;;;;;15.96;45.30;98104.00;4996710;28;98843;-71
2022/04/07 11:11:04;;;;;;;1.42;0.70;;;;;;;16.28;45.06;98104.31;4993099;28;97456;-70
2022/04/07 11:13:45;;;;;;;0.93;0.40;;;;;;;16.66;44.13;98102.31;4995259;28;96822;-74
2022/04/07 11:16:30;;;;;;;2.13;0.60;;;;;;;16.49;44.10;98089.81;4993281;28;98803;-72
2022/04/07 11:19:19;;;;;;;2.65;0.50;;;;;;;15.99;44.65;98090.41;4995692;28;98994;-72
2022/04/07 11:21:50;;;;;;;3.85;0.50;;;;;;;16.27;44.38;98081.34;4999104;28;98612;-73
2022/04/07 11:24:27;;;;;;;0.95;0.40;;;;;;;16.50;43.77;98067.50;4998547;28;98817;-70
2022/04/07 11:26:54;;;;;;;2.65;0.40;;;;;;;16.43;44.07;98063.78;4996817;28;101162;-71
2022/04/07 11:29:32;;;;;;;2.78;0.45;;;;;;;16.54;43.70;98047.53;5004415;28;98106;-72
2022/04/07 11:32:07;;;;;;;2.40;0.57;;;;;;;16.41;43.92;98047.13;4998104;28;96904;-74
2022/04/07 11:34:51;;;;;;;36.13;1.02;;;;;;;16.00;43.82;98043.31;4993258;28;98733;-73
2022/04/07 11:37:22;;;;;;;1.20;0.50;;;;;;;16.34;43.69;98022.94;4993673;28;97830;-72